TimeCST,TemperatureF,Dew PointF,Humidity,Sea Level PressureIn,VisibilityMPH,Wind Direction,Wind SpeedMPH,Gust SpeedMPH,PrecipitationIn,Events,Conditions,WindDirDegrees,DateUTC
12:13 AM,-2.2,-7.6,78,30.23,10.0,Calm,Calm,-,N/A,,Clear,0,2014-02-02 06:13:00
12:33 AM,-4.0,-7.6,85,30.23,10.0,SW,3.5,-,N/A,,Clear,220,2014-02-02 06:33:00
12:53 AM,-4.0,-7.6,85,30.23,10.0,SW,3.5,-,N/A,,Clear,220,2014-02-02 06:53:00
1:13 AM,-4.0,-7.6,85,30.23,10.0,SW,3.5,-,N/A,,Clear,230,2014-02-02 07:13:00
1:33 AM,-4.0,-9.4,78,30.23,10.0,Calm,Calm,-,N/A,,Clear,0,2014-02-02 07:33:00
1:53 AM,-4.0,-9.4,78,30.23,10.0,Calm,Calm,-,N/A,,Clear,0,2014-02-02 07:53:00
2:13 AM,-4.0,-9.4,78,30.23,10.0,WNW,3.5,-,N/A,,Clear,290,2014-02-02 08:13:00
2:33 AM,-4.0,-7.6,85,30.24,10.0,Calm,Calm,-,N/A,,Clear,0,2014-02-02 08:33:00
2:53 AM,-4.0,-9.4,78,30.24,10.0,Calm,Calm,-,N/A,,Clear,0,2014-02-02 08:53:00
3:13 AM,-4.0,-9.4,78,30.24,10.0,WSW,3.5,-,N/A,,Clear,250,2014-02-02 09:13:00
3:33 AM,-4.0,-9.4,78,30.24,10.0,WSW,3.5,-,N/A,,Clear,250,2014-02-02 09:33:00
3:53 AM,-4.0,-9.4,78,30.24,10.0,WSW,3.5,-,N/A,,Clear,250,2014-02-02 09:53:00
4:13 AM,-4.0,-9.4,78,30.24,10.0,West,3.5,-,N/A,,Clear,260,2014-02-02 10:13:00
4:33 AM,-4.0,-9.4,78,30.25,10.0,WSW,5.8,-,N/A,,Clear,250,2014-02-02 10:33:00
4:53 AM,-4.0,-9.4,78,30.25,10.0,WSW,4.6,-,N/A,,Clear,250,2014-02-02 10:53:00
5:13 AM,-4.0,-9.4,78,30.25,10.0,West,4.6,-,N/A,,Clear,270,2014-02-02 11:13:00
5:33 AM,-4.0,-9.4,78,30.25,10.0,West,5.8,-,N/A,,Clear,260,2014-02-02 11:33:00
5:53 AM,-4.0,-9.4,78,30.25,10.0,WSW,4.6,-,N/A,,Clear,240,2014-02-02 11:53:00
6:13 AM,-4.0,-9.4,78,30.25,10.0,WSW,4.6,-,N/A,,Clear,240,2014-02-02 12:13:00
6:33 AM,-4.0,-9.4,78,30.25,10.0,SW,3.5,-,N/A,,Clear,230,2014-02-02 12:33:00
6:53 AM,-4.0,-9.4,78,30.25,10.0,SSW,3.5,-,N/A,,Clear,200,2014-02-02 12:53:00
7:13 AM,-7.6,-13.0,77,30.25,10.0,Calm,Calm,-,N/A,,Clear,0,2014-02-02 13:13:00
7:33 AM,-4.0,-9.4,78,30.25,10.0,Calm,Calm,-,N/A,,Clear,0,2014-02-02 13:33:00
7:53 AM,-4.0,-9.4,78,30.26,10.0,South,4.6,-,N/A,,Clear,190,2014-02-02 13:53:00
8:13 AM,-4.0,-9.4,78,30.26,10.0,SSW,4.6,-,N/A,,Clear,200,2014-02-02 14:13:00
8:33 AM,-4.0,-9.4,78,30.26,10.0,SSW,5.8,-,N/A,,Clear,210,2014-02-02 14:33:00
8:53 AM,-2.2,-7.6,78,30.25,10.0,SSW,4.6,-,N/A,,Clear,200,2014-02-02 14:53:00
9:13 AM,-0.4,-5.8,78,30.26,10.0,Calm,Calm,-,N/A,,Clear,0,2014-02-02 15:13:00
9:33 AM,1.4,-4.0,78,30.25,10.0,South,3.5,-,N/A,,Clear,170,2014-02-02 15:33:00
9:53 AM,3.2,-2.2,78,30.25,10.0,SSW,4.6,-,N/A,,Clear,200,2014-02-02 15:53:00
10:13 AM,5.0,-0.4,78,30.25,10.0,SSW,5.8,-,N/A,,Clear,210,2014-02-02 16:13:00
10:33 AM,6.8,1.4,79,30.25,10.0,SSW,6.9,-,N/A,,Clear,200,2014-02-02 16:33:00
10:53 AM,8.6,1.4,73,30.25,10.0,South,5.8,-,N/A,,Clear,180,2014-02-02 16:53:00
11:13 AM,8.6,1.4,73,30.25,10.0,South,6.9,-,N/A,,Clear,190,2014-02-02 17:13:00
11:33 AM,10.4,3.2,73,30.24,10.0,SSW,8.1,-,N/A,,Clear,210,2014-02-02 17:33:00
11:53 AM,10.4,3.2,73,30.23,10.0,SSW,5.8,-,N/A,,Clear,210,2014-02-02 17:53:00
12:13 PM,10.4,3.2,73,30.22,10.0,SSW,8.1,-,N/A,,Clear,210,2014-02-02 18:13:00
12:33 PM,12.2,5.0,73,30.21,10.0,SW,6.9,-,N/A,,Clear,220,2014-02-02 18:33:00
12:53 PM,12.2,5.0,73,30.21,10.0,SW,8.1,-,N/A,,Clear,220,2014-02-02 18:53:00
1:13 PM,14.0,6.8,73,30.21,10.0,SSW,9.2,-,N/A,,Clear,200,2014-02-02 19:13:00
1:33 PM,15.8,8.6,73,30.21,10.0,SSW,8.1,-,N/A,,Clear,210,2014-02-02 19:33:00
1:53 PM,15.8,8.6,73,30.21,10.0,SSW,8.1,-,N/A,,Clear,210,2014-02-02 19:53:00
2:13 PM,15.8,6.8,68,30.20,10.0,SSW,8.1,-,N/A,,Clear,210,2014-02-02 20:13:00
2:33 PM,17.6,8.6,68,30.20,10.0,SW,10.4,-,N/A,,Clear,220,2014-02-02 20:33:00
2:53 PM,17.6,8.6,68,30.20,10.0,SW,9.2,-,N/A,,Clear,230,2014-02-02 20:53:00
3:13 PM,17.6,5.0,58,30.20,10.0,SW,10.4,-,N/A,,Clear,230,2014-02-02 21:13:00
3:33 PM,17.6,6.8,63,30.19,10.0,SW,11.5,-,N/A,,Clear,230,2014-02-02 21:33:00
3:53 PM,17.6,6.8,63,30.20,10.0,SW,11.5,-,N/A,,Clear,220,2014-02-02 21:53:00
4:13 PM,17.6,6.8,63,30.20,10.0,SW,10.4,-,N/A,,Clear,220,2014-02-02 22:13:00
4:33 PM,17.6,5.0,58,30.19,10.0,SW,10.4,-,N/A,,Clear,220,2014-02-02 22:33:00
4:53 PM,15.8,5.0,62,30.18,10.0,SSW,8.1,-,N/A,,Clear,200,2014-02-02 22:53:00
5:13 PM,15.8,6.8,68,30.18,10.0,SSW,6.9,-,N/A,,Clear,210,2014-02-02 23:13:00
5:33 PM,12.2,5.0,73,30.18,10.0,South,5.8,-,N/A,,Clear,190,2014-02-02 23:33:00
5:53 PM,12.2,3.2,67,30.17,10.0,South,4.6,-,N/A,,Clear,170,2014-02-02 23:53:00
6:13 PM,10.4,3.2,73,30.17,10.0,South,5.8,-,N/A,,Clear,170,2014-02-03 00:13:00
6:33 PM,10.4,3.2,73,30.17,10.0,SSE,4.6,-,N/A,,Clear,160,2014-02-03 00:33:00
6:53 PM,8.6,1.4,73,30.17,10.0,SSE,5.8,-,N/A,,Clear,160,2014-02-03 00:53:00
7:13 PM,8.6,1.4,73,30.16,10.0,SSE,6.9,-,N/A,,Clear,150,2014-02-03 01:13:00
7:33 PM,8.6,1.4,73,30.16,10.0,SSE,5.8,-,N/A,,Clear,160,2014-02-03 01:33:00
7:53 PM,8.6,1.4,73,30.16,10.0,SSE,6.9,-,N/A,,Clear,160,2014-02-03 01:53:00
8:13 PM,8.6,1.4,73,30.15,10.0,SSE,6.9,-,N/A,,Clear,150,2014-02-03 02:13:00
8:33 PM,8.6,1.4,73,30.15,10.0,SSE,6.9,-,N/A,,Clear,160,2014-02-03 02:33:00
8:53 PM,8.6,1.4,73,30.15,10.0,SSE,5.8,-,N/A,,Clear,150,2014-02-03 02:53:00
9:13 PM,8.6,1.4,73,30.15,10.0,SSE,6.9,-,N/A,,Clear,160,2014-02-03 03:13:00
9:33 PM,6.8,1.4,79,30.15,10.0,SSE,5.8,-,N/A,,Clear,160,2014-02-03 03:33:00
9:53 PM,8.6,1.4,73,30.14,10.0,SSE,6.9,-,N/A,,Clear,150,2014-02-03 03:53:00
10:13 PM,8.6,1.4,73,30.14,10.0,SSE,8.1,-,N/A,,Clear,150,2014-02-03 04:13:00
10:33 PM,8.6,1.4,73,30.13,10.0,SSE,9.2,-,N/A,,Clear,160,2014-02-03 04:33:00
10:53 PM,8.6,1.4,73,30.13,10.0,SSE,8.1,-,N/A,,Clear,160,2014-02-03 04:53:00
11:13 PM,6.8,1.4,79,30.12,10.0,SSE,6.9,-,N/A,,Clear,160,2014-02-03 05:13:00
11:33 PM,6.8,1.4,79,30.12,10.0,SSE,6.9,-,N/A,,Clear,160,2014-02-03 05:33:00
11:53 PM,5.0,-0.4,78,30.12,10.0,SSE,9.2,-,N/A,,Clear,160,2014-02-03 05:53:00